Blackwell, United Kingdom
Current Conditions -  °F | °C
As of 1:20 PM on Sunday 21 Dec 2014 (Local Time) from EGNX Reporting Station
Few Clouds Few Clouds  
Wind Chill: 50°   Ceiling: Unl
Heat Index: 50°   Visibility: 6mi
Dew Point: 43°   Wind: 24mph
Humidity: 76%   Direction: 230°SW
Pressure: 30.15"   Gusts: NA
Location:  53.12°N, 1.33°W
Report Text: EGNX 211320Z 23021KT 9999 FEW023 10/06 Q1021
Loading
Personal Weather Stations






























Interactive Weather Map New forecast layout! Learn more

10-Day Weather Forecast

Advertisements
Track Severe Weather on mobile